createdAt,value
2018-09-28T00:01:56.383Z,70.38
2018-09-28T00:04:24.465Z,70.39
2018-09-28T00:06:52.545Z,70.28
2018-09-28T00:09:20.605Z,70.29
2018-09-28T00:11:48.675Z,70.43
2018-09-28T00:14:16.742Z,70.32
2018-09-28T00:16:44.816Z,70.43
2018-09-28T00:19:12.881Z,70.46
2018-09-28T00:21:40.945Z,70.62
2018-09-28T00:24:09.048Z,70.04
2018-09-28T00:26:37.149Z,70.14
2018-09-28T00:29:05.214Z,70.00
2018-09-28T00:31:33.312Z,70.49
2018-09-28T00:34:01.391Z,70.17
2018-09-28T00:36:29.465Z,70.32
2018-09-28T00:38:57.531Z,69.94
2018-09-28T00:41:25.609Z,70.02
2018-09-28T00:43:53.678Z,69.41
2018-09-28T00:46:21.753Z,69.85
2018-09-28T00:48:49.825Z,69.51
2018-09-28T00:51:17.933Z,69.90
2018-09-28T00:53:46.030Z,69.96
2018-09-28T00:56:14.090Z,69.34
2018-09-28T00:58:42.150Z,69.17
2018-09-28T01:01:10.235Z,69.43
2018-09-28T01:03:38.317Z,69.38
2018-09-28T01:06:06.402Z,68.71
2018-09-28T01:08:34.502Z,68.43
2018-09-28T01:11:02.574Z,67.07
2018-09-28T01:13:30.640Z,67.31
2018-09-28T01:15:58.710Z,66.66
2018-09-28T01:18:26.773Z,66.89
2018-09-28T01:20:54.840Z,66.84
2018-09-28T01:23:22.901Z,66.46
2018-09-28T01:25:50.971Z,67.14
2018-09-28T01:28:19.037Z,66.36
2018-09-28T01:30:47.109Z,66.25
2018-09-28T01:33:15.226Z,66.23
2018-09-28T01:35:43.317Z,65.76
2018-09-28T01:38:11.394Z,65.93
2018-09-28T01:40:39.477Z,65.79
2018-09-28T01:43:07.556Z,65.32
2018-09-28T01:45:35.742Z,65.50
2018-09-28T01:48:03.821Z,65.49
2018-09-28T01:50:31.999Z,65.54
2018-09-28T01:53:00.070Z,64.56
2018-09-28T01:55:28.138Z,65.29
2018-09-28T01:57:56.221Z,65.22
2018-09-28T02:00:24.322Z,65.23
2018-09-28T02:02:52.397Z,65.30
2018-09-28T02:05:20.486Z,64.91
2018-09-28T02:07:48.581Z,65.00
2018-09-28T02:10:16.645Z,64.96
2018-09-28T02:12:44.718Z,64.95
2018-09-28T02:15:12.803Z,65.11
2018-09-28T02:17:40.881Z,65.07
2018-09-28T02:20:08.955Z,65.22
2018-09-28T02:22:37.017Z,64.99
2018-09-28T02:25:05.089Z,65.13
2018-09-28T02:27:33.153Z,65.21
2018-09-28T02:30:01.214Z,64.53
2018-09-28T02:32:29.337Z,64.08
2018-09-28T02:34:57.401Z,64.07
2018-09-28T02:37:25.472Z,63.94
2018-09-28T02:39:53.533Z,64.31
2018-09-28T02:42:21.605Z,63.69
2018-09-28T02:44:49.661Z,63.32
2018-09-28T02:47:17.734Z,62.89
2018-09-28T02:49:45.792Z,61.95
2018-09-28T02:52:13.870Z,61.06
2018-09-28T02:54:41.935Z,60.84
2018-09-28T02:57:10.000Z,60.93
2018-09-28T02:59:38.082Z,60.34
2018-09-28T03:02:06.265Z,59.56
2018-09-28T03:04:34.325Z,60.13
2018-09-28T03:07:02.401Z,59.74
2018-09-28T03:09:30.464Z,59.75
2018-09-28T03:11:58.525Z,59.78
2018-09-28T03:14:26.598Z,59.43
2018-09-28T03:16:54.669Z,59.63
2018-09-28T03:19:22.722Z,59.78
2018-09-28T03:21:50.789Z,59.66
2018-09-28T03:24:18.853Z,59.16
2018-09-28T03:26:46.917Z,58.26
2018-09-28T03:29:14.978Z,58.64
2018-09-28T03:31:43.078Z,58.49
2018-09-28T03:34:11.341Z,58.71
2018-09-28T03:36:39.406Z,58.75
2018-09-28T03:39:07.794Z,58.56
2018-09-28T03:41:35.853Z,58.17
2018-09-28T03:44:03.933Z,58.30
2018-09-28T03:46:32.086Z,58.32
2018-09-28T03:49:00.155Z,57.78
2018-09-28T03:51:28.223Z,57.97
2018-09-28T03:53:56.289Z,57.88
2018-09-28T03:56:24.350Z,58.23
2018-09-28T03:58:52.434Z,58.27
2018-09-28T04:01:20.489Z,58.20
2018-09-28T04:03:48.577Z,58.63
2018-09-28T04:06:16.638Z,58.16
2018-09-28T04:08:44.718Z,58.33
2018-09-28T04:11:12.833Z,58.65
2018-09-28T04:13:40.939Z,58.59
2018-09-28T04:16:09.030Z,58.37
2018-09-28T04:18:37.114Z,58.82
2018-09-28T04:21:05.177Z,58.46
2018-09-28T04:23:33.248Z,57.68
2018-09-28T04:26:01.310Z,57.67
2018-09-28T04:28:29.385Z,58.09
2018-09-28T04:30:57.463Z,58.01
2018-09-28T04:33:25.617Z,57.29
2018-09-28T04:35:53.677Z,57.92
2018-09-28T04:38:21.752Z,57.88
2018-09-28T04:40:49.821Z,57.43
2018-09-28T04:43:17.881Z,57.54
2018-09-28T04:45:45.981Z,57.48
2018-09-28T04:48:14.044Z,56.97
2018-09-28T04:50:42.104Z,56.97
2018-09-28T04:53:10.181Z,56.96
2018-09-28T04:55:38.251Z,56.93
2018-09-28T04:58:06.329Z,56.53
2018-09-28T05:00:34.389Z,56.63
2018-09-28T05:03:02.461Z,57.13
2018-09-28T05:05:30.537Z,56.78
2018-09-28T05:07:58.609Z,56.54
2018-09-28T05:10:26.663Z,56.77
2018-09-28T05:12:54.747Z,57.12
2018-09-28T05:15:22.838Z,56.49
2018-09-28T05:17:50.960Z,56.42
2018-09-28T05:20:19.047Z,56.53
2018-09-28T05:22:47.133Z,56.44
2018-09-28T05:25:15.275Z,56.37
2018-09-28T05:27:43.319Z,56.22
2018-09-28T05:30:11.397Z,56.66
2018-09-28T05:32:39.640Z,56.78
2018-09-28T05:35:07.605Z,56.59
2018-09-28T05:37:35.669Z,56.95
2018-09-28T05:40:03.781Z,56.85
2018-09-28T05:42:31.846Z,56.55
2018-09-28T05:44:59.929Z,56.87
2018-09-28T05:47:28.003Z,56.71
2018-09-28T05:49:56.109Z,56.75
2018-09-28T05:52:24.180Z,56.62
2018-09-28T05:54:52.248Z,56.81
2018-09-28T05:57:20.321Z,56.78
2018-09-28T05:59:53.699Z,56.90
2018-09-28T06:02:27.197Z,57.00
2018-09-28T06:05:00.717Z,57.06
2018-09-28T06:07:28.800Z,57.06
2018-09-28T06:09:56.878Z,56.84
2018-09-28T06:12:24.966Z,57.04
2018-09-28T06:14:53.071Z,56.96
2018-09-28T06:17:21.154Z,56.82
2018-09-28T06:19:49.257Z,56.61
2018-09-28T06:22:17.346Z,57.01
2018-09-28T06:24:45.448Z,56.57
2018-09-28T06:27:13.517Z,56.69
2018-09-28T06:29:41.631Z,56.75
2018-09-28T06:32:09.706Z,56.55
2018-09-28T06:34:37.798Z,56.53
2018-09-28T06:37:05.870Z,56.00
2018-09-28T06:39:33.975Z,56.33
2018-09-28T06:42:02.130Z,56.18
2018-09-28T06:44:30.227Z,56.26
2018-09-28T06:46:58.273Z,55.59
2018-09-28T06:49:26.363Z,55.24
2018-09-28T06:51:54.433Z,54.21
2018-09-28T06:54:22.517Z,54.21
2018-09-28T06:56:50.585Z,53.98
2018-09-28T06:59:18.662Z,53.43
2018-09-28T07:01:46.714Z,53.30
2018-09-28T07:04:14.793Z,52.71
2018-09-28T07:06:42.881Z,52.35
2018-09-28T07:09:12.509Z,51.81
2018-09-28T07:11:40.866Z,51.04
2018-09-28T07:14:09.458Z,49.83
2018-09-28T07:16:37.565Z,50.29
2018-09-28T07:19:05.869Z,49.96
2018-09-28T07:21:33.956Z,48.94
2018-09-28T07:24:02.195Z,48.49
2018-09-28T07:26:30.201Z,48.02
2018-09-28T07:28:58.334Z,48.25
2018-09-28T07:31:26.445Z,47.05
2018-09-28T07:33:54.558Z,47.08
2018-09-28T07:36:22.735Z,46.89
2018-09-28T07:38:50.738Z,47.15
2018-09-28T07:41:18.816Z,46.17
2018-09-28T07:43:46.877Z,45.98
2018-09-28T07:46:14.959Z,45.39
2018-09-28T07:48:43.049Z,45.52
2018-09-28T07:51:11.642Z,44.61
2018-09-28T07:53:39.718Z,43.69
2018-09-28T07:56:07.875Z,43.48
2018-09-28T07:58:35.966Z,43.77
2018-09-28T08:01:04.060Z,43.44
2018-09-28T08:03:32.164Z,43.18
2018-09-28T08:06:00.874Z,43.32
2018-09-28T08:08:28.975Z,42.30
2018-09-28T08:10:57.058Z,42.19
2018-09-28T08:13:25.150Z,42.16
2018-09-28T08:15:53.248Z,41.17
2018-09-28T08:18:22.429Z,41.96
2018-09-28T08:20:50.819Z,41.03
2018-09-28T08:23:19.115Z,40.34
2018-09-28T08:25:47.194Z,40.27
2018-09-28T08:28:15.277Z,40.53
2018-09-28T08:30:44.418Z,40.64
2018-09-28T08:33:12.514Z,41.15
2018-09-28T08:35:40.619Z,40.64
2018-09-28T08:38:08.707Z,40.28
2018-09-28T08:40:36.852Z,40.81
2018-09-28T08:43:05.107Z,40.90
2018-09-28T08:45:33.458Z,40.52
2018-09-28T08:48:01.578Z,51.01
2018-09-28T08:50:29.805Z,48.75
2018-09-28T08:52:58.081Z,47.28
2018-09-28T08:55:26.157Z,43.73
2018-09-28T08:57:54.220Z,44.24
2018-09-28T09:00:22.818Z,45.35
2018-09-28T09:02:50.890Z,43.33
2018-09-28T09:05:19.069Z,44.37
2018-09-28T09:07:47.279Z,43.40
2018-09-28T09:10:15.454Z,43.05
2018-09-28T09:12:43.570Z,44.39
2018-09-28T09:15:11.641Z,41.02
2018-09-28T09:17:39.737Z,43.02
2018-09-28T09:20:07.870Z,40.81
2018-09-28T09:22:36.061Z,41.65
2018-09-28T09:25:04.151Z,41.64
2018-09-28T09:27:32.297Z,41.53
2018-09-28T09:30:00.406Z,41.20
2018-09-28T09:32:28.502Z,41.75
2018-09-28T09:34:56.590Z,41.58
2018-09-28T09:37:24.782Z,41.41
2018-09-28T09:39:52.921Z,41.72
2018-09-28T09:42:21.048Z,41.91
2018-09-28T09:44:49.159Z,41.67
2018-09-28T09:47:17.258Z,41.11
2018-09-28T09:49:45.365Z,40.65
2018-09-28T09:52:13.479Z,40.77
2018-09-28T09:54:41.569Z,40.59
2018-09-28T09:57:09.685Z,40.53
2018-09-28T09:59:37.760Z,39.48
2018-09-28T10:02:11.366Z,39.16
2018-09-28T10:04:39.463Z,38.83
2018-09-28T10:07:07.799Z,37.81
2018-09-28T10:09:36.027Z,37.59
2018-09-28T10:12:04.125Z,38.13
2018-09-28T10:14:32.229Z,37.90
2018-09-28T10:17:00.316Z,37.97
2018-09-28T10:19:28.396Z,37.39
2018-09-28T10:21:56.481Z,36.80
2018-09-28T10:24:24.553Z,36.17
2018-09-28T10:26:52.638Z,36.47
2018-09-28T10:29:20.727Z,36.86
2018-09-28T10:31:48.838Z,36.14
2018-09-28T10:34:16.998Z,35.83
2018-09-28T10:36:45.070Z,35.72
2018-09-28T10:39:13.192Z,36.54
2018-09-28T10:41:41.323Z,35.27
2018-09-28T10:44:09.429Z,34.81
2018-09-28T10:46:37.685Z,34.15
2018-09-28T10:49:05.778Z,34.22
2018-09-28T10:51:33.882Z,34.23
2018-09-28T10:54:01.946Z,33.87
2018-09-28T10:56:30.066Z,33.34
2018-09-28T10:58:58.198Z,32.54
2018-09-28T11:01:26.233Z,32.38
2018-09-28T11:03:54.315Z,33.24
2018-09-28T11:06:22.398Z,33.37
2018-09-28T11:08:50.497Z,33.01
2018-09-28T11:11:18.566Z,32.79
2018-09-28T11:13:46.654Z,32.58
2018-09-28T11:16:14.747Z,32.82
2018-09-28T11:18:42.845Z,32.95
2018-09-28T11:21:11.037Z,32.80
2018-09-28T11:23:39.069Z,32.79
2018-09-28T11:26:07.381Z,32.71
2018-09-28T11:28:35.521Z,32.37
2018-09-28T11:31:03.594Z,32.30
2018-09-28T11:33:31.748Z,32.25
2018-09-28T11:36:00.116Z,32.27
2018-09-28T11:38:28.190Z,32.25
2018-09-28T11:40:56.266Z,32.32
2018-09-28T11:43:24.382Z,31.97
2018-09-28T11:45:52.492Z,31.94
2018-09-28T11:48:20.536Z,32.13
2018-09-28T11:50:48.605Z,32.47
2018-09-28T11:53:16.724Z,32.85
2018-09-28T11:55:44.877Z,32.83
2018-09-28T11:58:12.961Z,33.09
2018-09-28T12:00:41.033Z,32.76
2018-09-28T12:03:09.120Z,33.18
2018-09-28T12:05:37.197Z,33.98
2018-09-28T12:08:05.350Z,33.79
2018-09-28T12:10:33.429Z,33.94
2018-09-28T12:13:01.514Z,33.92
2018-09-28T12:15:29.611Z,33.02
2018-09-28T12:17:57.925Z,32.36
2018-09-28T12:20:25.993Z,33.07
2018-09-28T12:22:54.089Z,33.42
2018-09-28T12:25:22.272Z,34.08
2018-09-28T12:27:50.425Z,33.69
2018-09-28T12:30:18.501Z,34.17
2018-09-28T12:32:46.672Z,34.57
2018-09-28T12:35:14.757Z,33.70
2018-09-28T12:37:42.924Z,33.10
2018-09-28T12:40:11.017Z,33.08
2018-09-28T12:42:39.148Z,32.58
2018-09-28T12:45:07.363Z,32.32
2018-09-28T12:47:35.376Z,32.21
2018-09-28T12:50:03.488Z,32.92
2018-09-28T12:52:31.625Z,33.55
2018-09-28T12:54:59.704Z,33.31
2018-09-28T12:57:27.789Z,33.69
2018-09-28T12:59:55.937Z,33.75
2018-09-28T13:02:24.014Z,33.27
2018-09-28T13:04:52.131Z,33.16
2018-09-28T13:07:20.224Z,33.15
2018-09-28T13:09:48.332Z,32.64
2018-09-28T13:12:16.488Z,32.47
2018-09-28T13:14:44.696Z,32.35
2018-09-28T13:17:12.762Z,32.01
2018-09-28T13:19:40.870Z,31.35
2018-09-28T13:22:08.968Z,30.51
2018-09-28T13:24:37.110Z,30.81
2018-09-28T13:27:05.238Z,31.04
2018-09-28T13:29:33.397Z,30.93
2018-09-28T13:32:01.482Z,30.98
2018-09-28T13:34:29.562Z,31.37
2018-09-28T13:36:57.629Z,30.75
2018-09-28T13:39:25.782Z,29.96
2018-09-28T13:41:53.860Z,30.58
2018-09-28T13:44:22.013Z,30.67
2018-09-28T13:46:50.159Z,30.39
2018-09-28T13:49:18.225Z,30.21
2018-09-28T13:51:46.385Z,30.48
2018-09-28T13:54:14.508Z,30.54
2018-09-28T13:56:42.617Z,30.51
2018-09-28T13:59:10.661Z,30.35
2018-09-28T14:01:38.752Z,30.30
2018-09-28T14:04:07.080Z,30.57
2018-09-28T14:06:35.224Z,30.82
2018-09-28T14:09:03.270Z,30.96
2018-09-28T14:11:31.345Z,31.90
2018-09-28T14:13:59.952Z,31.98
2018-09-28T14:16:28.108Z,31.46
2018-09-28T14:18:56.203Z,31.98
2018-09-28T14:21:24.282Z,31.54
2018-09-28T14:23:52.465Z,31.96
2018-09-28T14:26:20.660Z,31.89
2018-09-28T14:28:48.798Z,32.43
2018-09-28T14:31:16.856Z,32.43
2018-09-28T14:33:44.982Z,33.53
2018-09-28T14:36:13.107Z,33.44
2018-09-28T14:38:41.284Z,34.59
2018-09-28T14:41:09.325Z,34.79
2018-09-28T14:43:37.439Z,35.39
2018-09-28T14:46:05.597Z,35.55
2018-09-28T14:48:33.721Z,35.29
2018-09-28T14:51:01.781Z,35.70
2018-09-28T14:53:29.850Z,33.94
2018-09-28T14:55:58.026Z,34.34
2018-09-28T14:58:26.143Z,34.65
2018-09-28T15:00:54.399Z,34.59
2018-09-28T15:03:22.318Z,33.90
2018-09-28T15:05:50.416Z,34.46
2018-09-28T15:08:18.605Z,34.15
2018-09-28T15:10:46.704Z,34.28
2018-09-28T15:13:14.750Z,34.29
2018-09-28T15:15:42.837Z,34.85
2018-09-28T15:18:10.924Z,34.96
2018-09-28T15:20:39.001Z,35.01
2018-09-28T15:23:07.066Z,34.71
2018-09-28T15:25:35.148Z,35.24
2018-09-28T15:28:03.226Z,35.00
2018-09-28T15:30:31.291Z,35.25
2018-09-28T15:32:59.366Z,35.39
2018-09-28T15:35:27.446Z,35.12
2018-09-28T15:37:55.597Z,35.54
2018-09-28T15:40:23.666Z,35.80
2018-09-28T15:42:51.762Z,36.30
2018-09-28T15:45:19.853Z,35.83
2018-09-28T15:47:47.993Z,36.98
2018-09-28T15:50:22.840Z,36.71
2018-09-28T15:52:50.926Z,37.72
2018-09-28T15:55:19.012Z,38.15
2018-09-28T15:57:47.080Z,38.15
2018-09-28T16:00:15.152Z,37.80
2018-09-28T16:02:43.269Z,38.32
2018-09-28T16:05:11.351Z,38.89
2018-09-28T16:07:39.414Z,39.03
2018-09-28T16:10:07.505Z,39.08
2018-09-28T16:12:35.637Z,39.50
2018-09-28T16:15:04.140Z,39.59
2018-09-28T16:17:32.645Z,39.44
2018-09-28T16:20:00.854Z,39.54
2018-09-28T16:22:29.233Z,39.47
2018-09-28T16:24:57.645Z,39.49
2018-09-28T16:27:32.580Z,39.08
2018-09-28T16:30:00.848Z,39.02
2018-09-28T16:32:29.373Z,39.37
2018-09-28T16:34:58.009Z,39.56
2018-09-28T16:37:26.613Z,39.91
2018-09-28T16:39:55.033Z,39.76
2018-09-28T16:42:23.654Z,39.97
2018-09-28T16:44:52.040Z,39.90
2018-09-28T16:47:20.569Z,39.93
2018-09-28T16:49:48.952Z,40.33
2018-09-28T16:52:17.322Z,40.39
2018-09-28T16:54:45.724Z,40.47
2018-09-28T16:57:14.058Z,40.68
2018-09-28T16:59:42.426Z,40.92
2018-09-28T17:02:10.688Z,40.75
2018-09-28T17:04:38.926Z,41.14
2018-09-28T17:07:07.175Z,41.10
2018-09-28T17:09:36.327Z,41.12
2018-09-28T17:12:04.594Z,41.53
2018-09-28T17:14:33.890Z,41.50
2018-09-28T17:17:02.271Z,41.91
2018-09-28T17:19:30.337Z,41.87
2018-09-28T17:21:58.658Z,42.31
2018-09-28T17:24:27.114Z,42.45
2018-09-28T17:26:56.107Z,42.46
2018-09-28T17:29:24.409Z,43.10
2018-09-28T17:31:52.745Z,43.06
2018-09-28T17:34:21.039Z,43.32
2018-09-28T17:36:49.305Z,43.42
2018-09-28T17:39:17.615Z,43.82
2018-09-28T17:41:45.761Z,44.36
2018-09-28T17:44:14.096Z,44.76
2018-09-28T17:46:42.402Z,44.64
2018-09-28T17:49:10.760Z,45.06
2018-09-28T17:51:39.470Z,44.81
2018-09-28T17:54:07.822Z,45.31
2018-09-28T17:56:35.986Z,45.45
2018-09-28T17:59:04.354Z,45.35
2018-09-28T18:01:32.679Z,45.63
2018-09-28T18:04:00.814Z,45.62
2018-09-28T18:06:28.912Z,46.46
2018-09-28T18:08:57.046Z,46.53
2018-09-28T18:11:25.321Z,46.71
2018-09-28T18:13:53.445Z,46.83
2018-09-28T18:16:21.542Z,47.16
2018-09-28T18:18:49.662Z,47.27
2018-09-28T18:21:17.739Z,47.48
2018-09-28T18:23:45.848Z,47.90
2018-09-28T18:26:13.921Z,47.93
2018-09-28T18:28:42.033Z,47.70
2018-09-28T18:31:10.093Z,49.54
2018-09-28T18:33:38.254Z,49.09
2018-09-28T18:36:06.339Z,49.67
2018-09-28T18:38:34.405Z,49.83
2018-09-28T18:41:02.520Z,59.32
2018-09-28T18:43:30.673Z,50.52
2018-09-28T18:45:58.742Z,49.64
2018-09-28T18:48:26.877Z,49.75
2018-09-28T18:50:54.937Z,49.93
2018-09-28T18:53:23.030Z,50.18
2018-09-28T18:55:51.101Z,50.06
2018-09-28T18:58:19.175Z,50.57
2018-09-28T19:00:47.242Z,50.80
2018-09-28T19:03:15.339Z,50.94
2018-09-28T19:05:43.434Z,50.84
2018-09-28T19:08:11.521Z,51.17
2018-09-28T19:10:39.621Z,50.90
2018-09-28T19:13:07.740Z,51.29
2018-09-28T19:15:35.789Z,51.71
2018-09-28T19:18:03.904Z,51.65
2018-09-28T19:20:31.981Z,51.92
2018-09-28T19:23:00.078Z,52.02
2018-09-28T19:25:28.164Z,52.32
2018-09-28T19:27:56.237Z,52.15
2018-09-28T19:30:24.300Z,52.86
2018-09-28T19:32:52.386Z,52.31
2018-09-28T19:35:20.505Z,52.92
2018-09-28T19:37:48.574Z,53.27
2018-09-28T19:40:16.681Z,53.46
2018-09-28T19:42:44.777Z,53.14
2018-09-28T19:45:12.913Z,53.89
2018-09-28T19:47:41.021Z,53.46
2018-09-28T19:50:09.164Z,53.71
2018-09-28T19:52:37.250Z,53.59
2018-09-28T19:55:05.385Z,54.22
2018-09-28T19:57:33.457Z,54.55
2018-09-28T20:00:01.566Z,55.06
2018-09-28T20:02:29.697Z,54.71
2018-09-28T20:04:57.785Z,54.30
2018-09-28T20:07:25.873Z,54.66
2018-09-28T20:09:53.958Z,55.28
2018-09-28T20:12:22.029Z,55.23
2018-09-28T20:14:50.157Z,54.82
2018-09-28T20:17:18.230Z,54.89
2018-09-28T20:19:46.297Z,55.07
2018-09-28T20:22:14.662Z,55.43
2018-09-28T20:24:42.729Z,55.35
2018-09-28T20:27:10.805Z,55.48
2018-09-28T20:29:39.082Z,55.63
2018-09-28T20:32:07.196Z,55.78
2018-09-28T20:34:35.279Z,56.22
2018-09-28T20:37:03.481Z,55.93
2018-09-28T20:39:31.573Z,55.80
2018-09-28T20:41:59.625Z,55.83
2018-09-28T20:44:27.698Z,56.10
2018-09-28T20:46:55.760Z,56.11
2018-09-28T20:49:23.874Z,56.44
2018-09-28T20:51:51.949Z,56.23
2018-09-28T20:54:20.066Z,56.97
2018-09-28T20:56:48.173Z,56.75
2018-09-28T20:59:16.245Z,57.05
2018-09-28T21:01:44.321Z,57.34
2018-09-28T21:04:12.403Z,57.24
2018-09-28T21:06:40.481Z,56.98
2018-09-28T21:09:09.535Z,57.65
2018-09-28T21:11:37.593Z,57.31
2018-09-28T21:14:05.666Z,57.72
2018-09-28T21:16:33.746Z,57.09
2018-09-28T21:19:01.826Z,57.18
2018-09-28T21:21:29.917Z,57.79
2018-09-28T21:23:57.994Z,57.28
2018-09-28T21:26:26.075Z,58.01
2018-09-28T21:28:54.248Z,57.55
2018-09-28T21:31:22.301Z,57.87
2018-09-28T21:33:50.395Z,57.94
2018-09-28T21:36:18.510Z,58.04
2018-09-28T21:38:46.584Z,58.72
2018-09-28T21:41:14.656Z,58.78
2018-09-28T21:43:42.717Z,58.38
2018-09-28T21:46:10.785Z,58.72
2018-09-28T21:48:38.858Z,59.29
2018-09-28T21:51:06.933Z,59.22
2018-09-28T21:53:35.018Z,59.17
2018-09-28T21:56:03.108Z,59.76
2018-09-28T21:58:31.177Z,59.67
2018-09-28T22:00:59.299Z,59.69
2018-09-28T22:03:27.497Z,59.51
2018-09-28T22:05:55.573Z,59.64
2018-09-28T22:08:23.653Z,60.53
2018-09-28T22:10:51.765Z,60.03
2018-09-28T22:13:19.872Z,60.96
2018-09-28T22:15:47.950Z,60.59
2018-09-28T22:18:16.105Z,60.95
2018-09-28T22:20:44.209Z,60.97
2018-09-28T22:23:12.277Z,61.36
2018-09-28T22:25:40.344Z,61.19
2018-09-28T22:28:08.405Z,61.09
2018-09-28T22:30:36.497Z,61.31
2018-09-28T22:33:04.576Z,61.08
2018-09-28T22:35:32.667Z,61.78
2018-09-28T22:38:00.779Z,61.65
2018-09-28T22:40:28.861Z,61.91
2018-09-28T22:42:56.929Z,61.84
2018-09-28T22:45:24.990Z,61.59
2018-09-28T22:47:53.042Z,61.95
2018-09-28T22:50:21.122Z,62.58
2018-09-28T22:52:49.184Z,62.53
2018-09-28T22:55:17.256Z,62.95
2018-09-28T22:57:45.323Z,63.48
2018-09-28T23:00:13.425Z,63.01
2018-09-28T23:02:41.485Z,63.52
2018-09-28T23:05:09.549Z,63.42
2018-09-28T23:07:37.593Z,63.47
2018-09-28T23:10:05.754Z,63.37
2018-09-28T23:12:33.849Z,62.80
2018-09-28T23:15:01.931Z,62.89
2018-09-28T23:17:29.997Z,62.90
2018-09-28T23:19:58.169Z,64.15
2018-09-28T23:22:26.229Z,63.61
2018-09-28T23:24:54.313Z,64.16
2018-09-28T23:27:22.377Z,63.53
2018-09-28T23:29:50.437Z,64.48
2018-09-28T23:32:18.514Z,64.16
2018-09-28T23:34:46.581Z,64.55
2018-09-28T23:37:14.666Z,63.57
2018-09-28T23:39:42.733Z,64.19
2018-09-28T23:42:10.805Z,64.75
2018-09-28T23:44:38.897Z,63.68
2018-09-28T23:47:06.968Z,64.14
2018-09-28T23:49:35.044Z,65.12
2018-09-28T23:52:03.176Z,64.38
2018-09-28T23:54:31.242Z,65.08
2018-09-28T23:56:59.401Z,65.91
2018-09-28T23:59:27.454Z,65.19
